Time;durP1;ratioP1;P1;durP2;ratioP2;P2;SDS_P1;SDS_P2;PMS_P1;PMS_P2;Temp;Humidity;BMP_temperature;BMP_pressure;BME280_temperature;BME280_humidity;BME280_pressure;Samples;Min_cycle;Max_cycle;Signal;HPM_P1;HPM_P2
2021/03/18 00:01:44;;;;;;;14.30;10.57;;;;;;;2.30;100.00;94995.97;5051765;28;20289;-60
2021/03/18 00:04:13;;;;;;;14.73;11.23;;;;;;;2.22;100.00;94999.03;5051578;28;20205;-60
2021/03/18 00:06:41;;;;;;;13.90;10.70;;;;;;;2.19;100.00;95002.13;5051487;28;20281;-59
2021/03/18 00:09:09;;;;;;;13.43;10.67;;;;;;;2.29;100.00;94997.00;5051346;28;20292;-59
2021/03/18 00:11:38;;;;;;;15.50;11.73;;;;;;;2.35;100.00;95003.69;5051326;28;20192;-60
2021/03/18 00:14:06;;;;;;;15.13;11.07;;;;;;;2.28;100.00;95003.16;5051453;28;20197;-60
2021/03/18 00:16:32;;;;;;;16.33;11.20;;;;;;;2.32;100.00;94999.06;5051356;28;20346;-59
2021/03/18 00:18:59;;;;;;;15.37;11.33;;;;;;;2.31;100.00;94997.53;5051210;28;20290;-60
2021/03/18 00:21:26;;;;;;;16.37;11.47;;;;;;;2.29;100.00;94999.56;5051325;28;20214;-60
2021/03/18 00:23:54;;;;;;;15.27;11.67;;;;;;;2.28;100.00;94999.81;5051091;28;20291;-60
2021/03/18 00:26:22;;;;;;;14.93;10.83;;;;;;;2.38;100.00;94999.84;5051112;28;20226;-60
2021/03/18 00:28:49;;;;;;;16.67;11.93;;;;;;;2.36;100.00;95000.09;5051194;28;20324;-60
2021/03/18 00:31:18;;;;;;;13.77;10.93;;;;;;;2.27;100.00;94996.50;5050990;28;20276;-58
2021/03/18 00:33:45;;;;;;;15.67;11.53;;;;;;;2.23;100.00;94994.69;5050981;28;20207;-60
2021/03/18 00:36:12;;;;;;;15.60;11.33;;;;;;;2.36;100.00;94991.63;5050947;28;20746;-60
2021/03/18 00:38:39;;;;;;;15.50;11.13;;;;;;;2.35;99.83;94997.78;5051041;28;20303;-60
2021/03/18 00:41:10;;;;;;;15.47;12.40;;;;;;;2.27;99.85;94993.16;5051039;28;20207;-60
2021/03/18 00:43:37;;;;;;;13.33;10.57;;;;;;;2.23;100.00;94992.91;5050780;28;20199;-60
2021/03/18 00:46:04;;;;;;;16.30;11.27;;;;;;;2.30;100.00;95000.31;5050611;28;20237;-59
2021/03/18 00:48:33;;;;;;;16.57;12.03;;;;;;;2.29;99.67;94997.00;5050702;28;20370;-58
2021/03/18 00:51:02;;;;;;;15.60;12.03;;;;;;;2.24;100.00;94999.56;5050595;28;20250;-60
2021/03/18 00:53:31;;;;;;;15.87;11.70;;;;;;;2.22;100.00;94996.47;5050742;28;20273;-60
2021/03/18 00:55:59;;;;;;;16.17;12.07;;;;;;;2.26;99.80;94983.91;5050766;28;20640;-60
2021/03/18 00:58:27;;;;;;;13.83;11.47;;;;;;;2.24;100.00;94991.09;5049952;28;20248;-59
2021/03/18 01:00:56;;;;;;;16.37;12.83;;;;;;;2.19;100.00;94999.56;5050416;28;20193;-60
2021/03/18 01:03:24;;;;;;;16.00;11.77;;;;;;;2.30;100.00;94992.63;5050490;28;20574;-60
2021/03/18 01:06:10;;;;;;;17.60;13.40;;;;;;;2.33;100.00;94992.91;5050373;28;20200;-59
2021/03/18 01:08:39;;;;;;;16.30;12.63;;;;;;;2.24;100.00;94991.09;5050231;28;20717;-60
2021/03/18 01:11:08;;;;;;;17.77;13.17;;;;;;;2.19;99.81;94989.31;5050340;28;20215;-57
2021/03/18 01:13:38;;;;;;;18.80;13.50;;;;;;;2.27;100.00;94996.50;5050435;28;20197;-60
2021/03/18 01:16:07;;;;;;;17.27;13.27;;;;;;;2.26;100.00;94994.94;5050262;28;20193;-60
2021/03/18 01:18:39;;;;;;;18.80;12.77;;;;;;;2.20;99.55;94995.94;5050553;28;20636;-60
2021/03/18 01:21:08;;;;;;;20.03;12.77;;;;;;;2.31;99.85;94989.81;5050226;28;20196;-60
2021/03/18 01:23:36;;;;;;;19.37;13.27;;;;;;;2.20;100.00;94993.38;5050149;28;20189;-60
2021/03/18 01:26:03;;;;;;;19.40;13.67;;;;;;;2.25;100.00;94993.41;5049972;28;20678;-60
2021/03/18 01:28:30;;;;;;;18.97;13.23;;;;;;;2.25;99.68;94995.97;5049947;28;20820;-60
2021/03/18 01:30:59;;;;;;;17.83;13.20;;;;;;;2.28;99.97;94992.13;5050170;28;20239;-60
2021/03/18 01:33:26;;;;;;;17.87;13.23;;;;;;;2.23;100.00;95000.59;5050177;28;20200;-60
2021/03/18 01:35:53;;;;;;;17.13;12.67;;;;;;;2.28;99.46;94998.03;5050235;28;20365;-60
2021/03/18 01:38:20;;;;;;;19.83;13.50;;;;;;;2.27;98.83;94996.50;5049942;28;20248;-60
2021/03/18 01:40:47;;;;;;;20.90;14.50;;;;;;;2.30;99.89;94998.53;5049954;28;20195;-60
2021/03/18 01:43:14;;;;;;;19.60;13.23;;;;;;;2.26;99.79;95002.63;5049765;28;20282;-60
2021/03/18 01:45:41;;;;;;;18.47;14.03;;;;;;;2.24;99.31;95003.91;5050073;28;20637;-60
2021/03/18 01:48:09;;;;;;;19.77;14.63;;;;;;;2.25;98.93;95001.09;5049716;28;20240;-60
2021/03/18 01:50:39;;;;;;;20.73;13.73;;;;;;;2.23;99.86;95005.72;5049892;28;20287;-60
2021/03/18 01:53:07;;;;;;;18.87;13.43;;;;;;;2.33;99.80;95003.19;5049791;28;20222;-59
2021/03/18 01:55:38;;;;;;;20.17;13.77;;;;;;;2.31;99.62;95007.78;5049748;28;20243;-60
2021/03/18 01:58:06;;;;;;;23.40;16.50;;;;;;;2.31;98.01;95007.78;5049782;28;20281;-60
2021/03/18 02:00:36;;;;;;;16.97;12.70;;;;;;;2.27;98.93;95005.97;5049769;28;20768;-60
2021/03/18 02:03:05;;;;;;;16.67;12.17;;;;;;;2.28;98.55;95013.41;5049692;28;20282;-60
2021/03/18 02:05:34;;;;;;;17.27;13.27;;;;;;;2.33;99.04;95010.88;5049583;28;20199;-60
2021/03/18 02:08:02;;;;;;;18.53;13.87;;;;;;;2.28;98.27;95008.28;5049824;28;20245;-60
2021/03/18 02:10:31;;;;;;;17.90;13.20;;;;;;;2.26;99.32;95014.66;5052654;28;20219;-60
2021/03/18 02:12:59;;;;;;;17.40;12.60;;;;;;;2.21;99.59;95020.56;5053680;28;20338;-59
2021/03/18 02:15:29;;;;;;;19.03;14.00;;;;;;;2.20;99.97;95020.81;5054159;28;20201;-60
2021/03/18 02:18:05;;;;;;;17.23;12.93;;;;;;;2.14;99.71;95022.59;5053778;28;20297;-59
2021/03/18 02:21:08;;;;;;;22.87;17.00;;;;;;;2.14;100.00;95027.72;5053489;28;20199;-58
2021/03/18 02:24:20;;;;;;;18.00;13.93;;;;;;;2.21;99.18;95025.69;5053474;28;20713;-60
2021/03/18 02:27:37;;;;;;;18.80;13.47;;;;;;;2.23;99.04;95028.78;5029043;28;20197;-60
2021/03/18 02:30:45;;;;;;;16.60;12.30;;;;;;;2.17;99.22;95037.47;5053343;28;20290;-59
2021/03/18 02:34:01;;;;;;;21.20;14.67;;;;;;;2.20;100.00;95031.81;5053317;28;20208;-60
2021/03/18 02:36:34;;;;;;;20.63;13.87;;;;;;;2.05;100.00;95037.66;5053164;28;20266;-59
2021/03/18 02:39:05;;;;;;;18.10;13.30;;;;;;;2.08;100.00;95034.63;5053225;28;20750;-60
2021/03/18 02:41:38;;;;;;;19.47;13.67;;;;;;;1.99;100.00;95035.34;5053167;28;20660;-60
2021/03/18 02:44:10;;;;;;;20.07;14.57;;;;;;;2.00;100.00;95036.88;5053475;28;20204;-60
2021/03/18 02:46:39;;;;;;;19.13;13.40;;;;;;;2.08;100.00;95029.50;5053261;28;20237;-60
2021/03/18 02:49:08;;;;;;;15.80;12.10;;;;;;;2.16;100.00;95034.13;5052763;28;20242;-60
2021/03/18 02:51:38;;;;;;;16.57;12.27;;;;;;;2.20;100.00;95031.81;5052915;28;20201;-59
2021/03/18 02:54:08;;;;;;;18.67;12.53;;;;;;;2.08;100.00;95037.19;5052773;28;20207;-59
2021/03/18 02:56:39;;;;;;;16.23;11.40;;;;;;;2.17;100.00;95034.91;5052839;28;20196;-60
2021/03/18 02:59:07;;;;;;;16.07;11.97;;;;;;;1.99;100.00;95033.53;5053117;28;20569;-60
2021/03/18 03:01:34;;;;;;;18.53;12.50;;;;;;;2.04;99.78;95032.81;5052711;28;20758;-59
2021/03/18 03:04:02;;;;;;;17.90;11.83;;;;;;;2.02;100.00;95035.63;5052729;28;20238;-60
2021/03/18 03:06:31;;;;;;;16.23;11.33;;;;;;;2.03;100.00;95042.28;5052637;28;20698;-60
2021/03/18 03:09:01;;;;;;;17.20;11.73;;;;;;;2.09;100.00;95031.03;5052431;28;20316;-60
2021/03/18 03:11:29;;;;;;;15.67;11.77;;;;;;;2.07;100.00;95037.44;5052958;28;20207;-60
2021/03/18 03:13:58;;;;;;;16.07;10.93;;;;;;;2.03;100.00;95031.28;5052639;28;20283;-60
2021/03/18 03:16:26;;;;;;;18.20;12.03;;;;;;;1.99;100.00;95035.34;5052555;28;20228;-60
2021/03/18 03:18:54;;;;;;;17.27;12.00;;;;;;;1.95;100.00;95029.94;5052413;28;20206;-60
2021/03/18 03:21:23;;;;;;;14.80;11.63;;;;;;;1.97;100.00;95042.50;5051821;28;20207;-60
2021/03/18 03:23:52;;;;;;;17.10;11.80;;;;;;;1.99;99.63;95040.47;5052641;28;20195;-60
2021/03/18 03:26:23;;;;;;;16.80;12.07;;;;;;;1.98;99.76;95041.50;5052388;28;20283;-60
2021/03/18 03:28:53;;;;;;;14.40;10.53;;;;;;;2.02;100.00;95039.97;5052251;28;20661;-60
2021/03/18 03:31:20;;;;;;;15.93;10.63;;;;;;;2.00;99.47;95044.56;5052272;28;20362;-57
2021/03/18 03:33:48;;;;;;;14.07;10.77;;;;;;;1.90;100.00;95047.84;5052381;28;20276;-60
2021/03/18 03:36:15;;;;;;;14.80;11.53;;;;;;;1.91;99.91;95040.94;5052126;28;20283;-60
2021/03/18 03:38:42;;;;;;;14.90;10.57;;;;;;;1.96;99.68;95051.22;5052000;28;20199;-60
2021/03/18 03:41:08;;;;;;;13.13;10.30;;;;;;;1.96;99.46;95046.88;5052296;28;20605;-60
2021/03/18 03:43:37;;;;;;;15.33;10.97;;;;;;;1.95;99.42;95047.09;5052066;28;20738;-59
2021/03/18 03:46:05;;;;;;;19.87;12.33;;;;;;;1.88;100.00;95049.91;5051862;28;20194;-61
2021/03/18 03:48:34;;;;;;;16.63;11.57;;;;;;;1.99;98.48;95053.28;5051563;28;20251;-60
2021/03/18 03:51:03;;;;;;;16.00;11.50;;;;;;;1.93;98.66;95052.50;5051846;28;20202;-60
2021/03/18 03:53:40;;;;;;;17.67;12.37;;;;;;;1.92;98.95;95056.06;5051883;28;20250;-60
2021/03/18 03:56:17;;;;;;;16.70;12.43;;;;;;;1.93;99.50;95056.84;5051677;28;20207;-62
2021/03/18 03:58:51;;;;;;;16.97;11.87;;;;;;;1.91;100.00;95053.75;5051673;28;20725;-59
2021/03/18 04:01:26;;;;;;;16.23;12.10;;;;;;;1.73;100.00;95052.41;5051676;28;20196;-60
2021/03/18 04:03:57;;;;;;;18.87;13.20;;;;;;;1.66;100.00;95055.16;5051644;28;20207;-59
2021/03/18 04:06:24;;;;;;;16.80;12.40;;;;;;;1.71;100.00;95055.19;5051554;28;20191;-59
2021/03/18 04:08:51;;;;;;;18.57;13.17;;;;;;;1.73;100.00;95058.28;5051310;28;20260;-62
2021/03/18 04:11:20;;;;;;;20.03;14.43;;;;;;;1.63;100.00;95062.59;5051286;28;20225;-59
2021/03/18 04:13:50;;;;;;;18.67;13.70;;;;;;;1.68;100.00;95055.69;5051407;28;20272;-59
2021/03/18 04:16:17;;;;;;;21.47;13.30;;;;;;;1.70;100.00;95058.78;5051544;28;20205;-59
2021/03/18 04:18:46;;;;;;;19.27;13.20;;;;;;;1.66;100.00;95060.28;5051576;28;20217;-60
2021/03/18 04:21:14;;;;;;;18.70;12.87;;;;;;;1.67;100.00;95058.50;5051313;28;20195;-60
2021/03/18 04:23:44;;;;;;;18.80;13.27;;;;;;;1.67;100.00;95066.19;5051098;28;20572;-60
2021/03/18 04:26:12;;;;;;;19.53;13.97;;;;;;;1.67;100.00;95063.63;5051317;28;20216;-60
2021/03/18 04:28:39;;;;;;;18.40;12.90;;;;;;;1.62;100.00;95066.94;5051139;28;20297;-60
2021/03/18 04:31:08;;;;;;;19.20;13.87;;;;;;;1.70;100.00;95061.34;5050654;28;20255;-60
2021/03/18 04:33:35;;;;;;;22.07;14.10;;;;;;;1.72;100.00;95061.09;5050487;28;20665;-60
2021/03/18 04:36:04;;;;;;;18.83;13.10;;;;;;;1.76;100.00;95061.34;5051048;28;20723;-61
2021/03/18 04:38:32;;;;;;;23.77;14.50;;;;;;;1.70;100.00;95068.25;5050989;28;20739;-60
2021/03/18 04:41:00;;;;;;;20.07;13.33;;;;;;;1.82;100.00;95070.63;5050861;28;20194;-61
2021/03/18 04:43:28;;;;;;;20.10;14.37;;;;;;;1.71;100.00;95068.00;5050937;28;20208;-61
2021/03/18 04:45:57;;;;;;;22.43;14.83;;;;;;;1.72;100.00;95074.66;5050782;28;20282;-61
2021/03/18 04:48:26;;;;;;;20.97;14.07;;;;;;;1.70;100.00;95071.56;5050355;28;20242;-60
2021/03/18 04:50:53;;;;;;;22.80;14.20;;;;;;;1.62;100.00;95079.72;5050649;28;20224;-60
2021/03/18 04:53:21;;;;;;;22.20;14.40;;;;;;;1.70;100.00;95081.81;5050733;28;20686;-61
2021/03/18 04:55:48;;;;;;;25.13;15.67;;;;;;;1.65;100.00;95083.56;5050847;28;20202;-61
2021/03/18 04:58:19;;;;;;;21.60;14.53;;;;;;;1.74;100.00;95082.84;5050753;28;20586;-61
2021/03/18 05:00:48;;;;;;;21.47;14.27;;;;;;;1.73;100.00;95091.59;5050574;28;20256;-60
2021/03/18 05:03:16;;;;;;;20.23;14.23;;;;;;;1.84;100.00;95087.28;5050362;28;20196;-60
2021/03/18 05:05:44;;;;;;;22.43;15.10;;;;;;;1.76;100.00;95097.22;5050270;28;20238;-60
2021/03/18 05:08:12;;;;;;;23.33;15.63;;;;;;;1.72;100.00;95097.72;5050511;28;20362;-61
2021/03/18 05:10:42;;;;;;;20.83;14.83;;;;;;;1.81;100.00;95099.81;5050191;28;20213;-60
2021/03/18 05:13:10;;;;;;;21.53;14.20;;;;;;;1.85;100.00;95101.63;5049985;28;20250;-61
2021/03/18 05:15:40;;;;;;;23.10;15.17;;;;;;;1.85;100.00;95096.50;5050167;28;20204;-60
2021/03/18 05:18:10;;;;;;;22.23;13.90;;;;;;;1.99;100.00;95096.84;5050515;28;20202;-60
2021/03/18 05:20:38;;;;;;;21.07;14.57;;;;;;;1.95;100.00;95103.47;5050214;28;20197;-60
2021/03/18 05:23:06;;;;;;;18.43;13.37;;;;;;;2.00;100.00;95103.50;5050048;28;20198;-60
2021/03/18 05:25:33;;;;;;;20.40;13.50;;;;;;;1.96;100.00;95105.00;5050168;28;20235;-60
2021/03/18 05:28:00;;;;;;;18.97;12.50;;;;;;;1.92;100.00;95109.09;5049737;28;20204;-61
2021/03/18 05:30:28;;;;;;;17.93;12.40;;;;;;;1.94;100.00;95117.31;5049669;28;20204;-61
2021/03/18 05:32:56;;;;;;;19.93;13.47;;;;;;;1.85;100.00;95106.75;5049635;28;20241;-60
2021/03/18 05:35:23;;;;;;;19.23;13.17;;;;;;;1.87;100.00;95114.19;5049525;28;20199;-61
2021/03/18 05:37:50;;;;;;;19.07;13.00;;;;;;;1.98;100.00;95120.91;5049685;28;20205;-60
2021/03/18 05:40:19;;;;;;;22.63;13.40;;;;;;;2.09;100.00;95114.84;5049498;28;20234;-60
2021/03/18 05:42:48;;;;;;;21.13;13.50;;;;;;;2.17;100.00;95120.25;5049144;28;20577;-62
2021/03/18 05:45:16;;;;;;;17.93;12.40;;;;;;;2.20;100.00;95113.84;5049681;28;20202;-59
2021/03/18 05:47:43;;;;;;;18.37;12.20;;;;;;;2.13;100.00;95119.22;5049126;28;20321;-59
2021/03/18 05:50:14;;;;;;;17.77;11.73;;;;;;;2.25;100.00;95131.81;5049289;28;20824;-61
2021/03/18 05:52:41;;;;;;;17.80;12.63;;;;;;;2.36;100.00;95133.41;5049231;28;20205;-60
2021/03/18 05:55:09;;;;;;;20.83;13.70;;;;;;;2.37;100.00;95134.94;5049304;28;20194;-62
2021/03/18 05:57:39;;;;;;;19.10;12.87;;;;;;;2.40;100.00;95134.44;5049236;28;20233;-60
2021/03/18 06:00:08;;;;;;;18.47;13.07;;;;;;;2.28;100.00;95139.00;5049206;28;20199;-59
2021/03/18 06:02:36;;;;;;;18.93;13.00;;;;;;;2.41;100.00;95137.78;5049056;28;20199;-60
2021/03/18 06:05:04;;;;;;;19.93;12.97;;;;;;;2.55;100.00;95143.97;5049162;28;20234;-59
2021/03/18 06:07:32;;;;;;;18.53;13.20;;;;;;;2.67;100.00;95144.53;5049165;28;20198;-60
2021/03/18 06:10:00;;;;;;;17.07;11.97;;;;;;;2.74;99.21;95145.06;5048901;28;20239;-60
2021/03/18 06:12:27;;;;;;;15.87;12.07;;;;;;;2.81;97.42;95148.19;5049181;28;20637;-62
2021/03/18 06:14:55;;;;;;;15.60;11.00;;;;;;;2.94;97.45;95150.25;5049137;28;20602;-59
2021/03/18 06:17:23;;;;;;;16.47;11.70;;;;;;;2.89;96.17;95154.63;5049126;28;20281;-62
2021/03/18 06:19:52;;;;;;;16.90;11.63;;;;;;;3.00;98.73;95156.16;5048744;28;20287;-60
2021/03/18 06:22:33;;;;;;;20.97;13.03;;;;;;;2.97;98.53;95161.81;5048877;28;20308;-60
2021/03/18 06:25:00;;;;;;;17.07;11.47;;;;;;;3.04;97.21;95170.81;5049021;28;20251;-60
2021/03/18 06:27:27;;;;;;;18.10;11.73;;;;;;;3.13;97.07;95157.50;5049026;28;20193;-60
2021/03/18 06:29:56;;;;;;;14.80;10.33;;;;;;;3.13;95.19;95162.63;5048824;28;20224;-60
2021/03/18 06:32:24;;;;;;;13.47;9.87;;;;;;;3.11;94.19;95177.50;5048792;28;20291;-60
2021/03/18 06:34:52;;;;;;;12.17;9.50;;;;;;;3.18;95.24;95178.03;5048854;28;20193;-60
2021/03/18 06:37:34;;;;;;;10.77;8.53;;;;;;;3.25;94.50;95176.75;5049211;28;20619;-60
2021/03/18 06:40:11;;;;;;;11.53;8.40;;;;;;;3.25;93.92;95176.75;5049162;28;20249;-60
2021/03/18 06:42:39;;;;;;;14.57;10.63;;;;;;;3.17;93.51;95174.69;5049068;28;20196;-60
2021/03/18 06:45:10;;;;;;;14.93;10.53;;;;;;;3.13;95.62;95183.16;5048888;28;20284;-60
2021/03/18 06:47:46;;;;;;;12.67;9.47;;;;;;;3.24;96.56;95179.59;5048536;28;20260;-59
2021/03/18 06:50:15;;;;;;;12.80;9.43;;;;;;;3.25;94.93;95181.88;5048758;28;20289;-63
2021/03/18 06:52:44;;;;;;;12.30;9.03;;;;;;;3.21;94.57;95192.94;5048720;28;20197;-59
2021/03/18 06:55:13;;;;;;;10.43;8.43;;;;;;;3.14;93.67;95188.03;5049571;28;20223;-60
2021/03/18 06:57:40;;;;;;;12.93;10.03;;;;;;;3.22;97.01;95197.81;5052314;28;20193;-60
2021/03/18 07:00:10;;;;;;;12.67;8.30;;;;;;;3.32;95.69;95191.91;5052571;28;20632;-60
2021/03/18 07:02:42;;;;;;;11.20;8.57;;;;;;;3.27;94.50;95194.47;5052485;28;20200;-61
2021/03/18 07:05:19;;;;;;;12.23;8.70;;;;;;;3.15;94.67;95197.28;5052168;28;20200;-61
2021/03/18 07:07:50;;;;;;;14.57;8.50;;;;;;;3.33;95.22;95196.81;5052255;28;20291;-61
2021/03/18 07:10:32;;;;;;;12.30;8.47;;;;;;;3.38;93.60;95196.81;5051984;28;20290;-60
2021/03/18 07:13:14;;;;;;;11.50;9.17;;;;;;;3.34;93.99;95195.00;5052082;28;20817;-61
2021/03/18 07:15:42;;;;;;;9.73;7.57;;;;;;;3.40;94.63;95199.13;5052016;28;20284;-61
2021/03/18 07:18:11;;;;;;;10.77;7.70;;;;;;;3.46;92.98;95203.25;5051897;28;20283;-60
2021/03/18 07:20:39;;;;;;;8.27;7.23;;;;;;;3.47;92.14;95194.50;5051970;28;20233;-60
2021/03/18 07:23:14;;;;;;;11.27;8.43;;;;;;;3.51;92.58;95194.75;5051904;28;20242;-60
2021/03/18 07:25:46;;;;;;;13.70;9.77;;;;;;;3.62;93.02;95191.19;5052087;28;20200;-60
2021/03/18 07:28:14;;;;;;;11.23;8.47;;;;;;;3.92;93.68;95192.97;5052067;28;20201;-60
2021/03/18 07:30:42;;;;;;;10.43;7.30;;;;;;;3.93;90.42;95192.72;5051783;28;20236;-61
2021/03/18 07:33:10;;;;;;;11.10;7.90;;;;;;;3.97;91.71;95196.31;5051711;28;20292;-60
2021/03/18 07:35:37;;;;;;;8.33;6.37;;;;;;;4.07;90.05;95193.72;5051938;28;20265;-60
2021/03/18 07:38:05;;;;;;;8.67;6.40;;;;;;;4.26;91.13;95204.25;5051592;28;20584;-60
2021/03/18 07:40:32;;;;;;;9.67;6.97;;;;;;;4.41;90.07;95208.59;5051648;28;20668;-61
2021/03/18 07:43:00;;;;;;;7.60;6.10;;;;;;;4.48;89.12;95202.16;5051711;28;20207;-61
2021/03/18 07:45:28;;;;;;;7.77;6.20;;;;;;;4.60;89.84;95200.03;5051470;28;20283;-60
2021/03/18 07:47:57;;;;;;;7.50;6.20;;;;;;;4.71;88.43;95208.50;5051226;28;20237;-61
2021/03/18 07:50:30;;;;;;;7.80;5.80;;;;;;;4.64;86.54;95202.84;5051286;28;20254;-60
2021/03/18 07:52:59;;;;;;;7.13;5.67;;;;;;;4.48;85.90;95212.44;5051322;28;20208;-60
2021/03/18 07:55:26;;;;;;;6.77;5.40;;;;;;;4.55;85.66;95214.72;5051496;28;20229;-60
2021/03/18 07:57:53;;;;;;;6.10;5.13;;;;;;;4.40;83.47;95218.09;5051198;28;20286;-59
2021/03/18 08:00:23;;;;;;;6.00;4.80;;;;;;;4.53;83.97;95221.94;5051230;28;20208;-59
2021/03/18 08:02:50;;;;;;;5.83;5.17;;;;;;;4.67;84.41;95210.06;5051541;28;20322;-60
2021/03/18 08:05:39;;;;;;;6.50;5.43;;;;;;;4.66;84.97;95216.22;5051146;28;20227;-60
2021/03/18 08:08:07;;;;;;;6.17;5.00;;;;;;;4.80;84.33;95212.06;5051063;28;20193;-59
2021/03/18 08:10:39;;;;;;;6.87;5.70;;;;;;;4.84;86.14;95215.66;5050795;28;20213;-59
2021/03/18 08:13:06;;;;;;;7.93;5.60;;;;;;;4.82;84.44;95210.00;5051157;28;20197;-60
2021/03/18 08:15:43;;;;;;;5.83;4.80;;;;;;;4.73;80.11;95214.16;5050957;28;20641;-60
2021/03/18 08:18:33;;;;;;;6.17;4.57;;;;;;;4.50;82.33;95217.31;5050872;28;20689;-60
2021/03/18 08:21:11;;;;;;;6.40;4.93;;;;;;;4.63;84.46;95216.75;5050720;28;20199;-59
2021/03/18 08:23:49;;;;;;;8.17;5.07;;;;;;;4.74;84.39;95213.09;5050889;28;20200;-60
2021/03/18 08:26:47;;;;;;;5.13;4.20;;;;;;;4.90;80.98;95219.75;5050736;28;20911;-60
2021/03/18 08:29:18;;;;;;;6.67;5.40;;;;;;;4.86;83.48;95226.47;5050519;28;20228;-60
2021/03/18 08:32:01;;;;;;;6.77;5.00;;;;;;;4.90;81.71;95219.75;5050550;28;20268;-60
2021/03/18 08:34:50;;;;;;;8.00;5.37;;;;;;;4.81;82.91;95221.34;5050722;28;20232;-60
2021/03/18 08:37:41;;;;;;;4.57;3.50;;;;;;;4.90;80.99;95226.69;5050542;28;20197;-59
2021/03/18 08:40:11;;;;;;;4.57;3.80;;;;;;;4.78;80.39;95229.59;5050503;28;20193;-61
2021/03/18 08:42:45;;;;;;;4.73;3.80;;;;;;;4.97;81.85;95220.25;5050414;28;20200;-61
2021/03/18 08:45:42;;;;;;;5.13;4.13;;;;;;;5.22;81.17;95223.72;5050544;28;20196;-60
2021/03/18 08:48:21;;;;;;;5.57;4.20;;;;;;;5.28;80.23;95230.41;5050096;28;20240;-61
2021/03/18 08:50:59;;;;;;;4.97;4.43;;;;;;;5.20;80.42;95232.50;5050268;28;20193;-61
2021/03/18 08:53:36;;;;;;;6.37;4.13;;;;;;;4.98;78.87;95239.03;5050134;28;20280;-60
2021/03/18 08:56:07;;;;;;;4.23;3.60;;;;;;;5.02;81.04;95240.81;5050199;28;20270;-62
2021/03/18 08:58:48;;;;;;;4.87;3.97;;;;;;;5.15;80.16;95235.09;5050083;28;20270;-61
2021/03/18 09:01:20;;;;;;;4.50;3.33;;;;;;;5.26;77.82;95235.81;5049934;28;20197;-60
2021/03/18 09:03:57;;;;;;;4.93;3.97;;;;;;;5.25;79.99;95228.34;5050157;28;20547;-60
2021/03/18 09:06:24;;;;;;;4.13;3.40;;;;;;;5.34;78.55;95237.81;5049988;28;20201;-60
2021/03/18 09:08:52;;;;;;;3.20;2.87;;;;;;;5.34;77.50;95232.66;5049815;28;20221;-60
2021/03/18 09:11:23;;;;;;;5.70;3.77;;;;;;;5.51;76.82;95232.31;5049856;28;20201;-61
2021/03/18 09:13:50;;;;;;;4.80;3.57;;;;;;;5.42;78.51;95239.84;5050070;28;20690;-61
2021/03/18 09:16:20;;;;;;;5.50;4.13;;;;;;;5.65;80.42;95238.41;5049686;28;20694;-61
2021/03/18 09:18:48;;;;;;;5.17;4.17;;;;;;;5.67;78.80;95240.72;5049481;28;20208;-61
2021/03/18 09:21:15;;;;;;;4.57;3.60;;;;;;;5.64;79.10;95247.19;5049757;28;20200;-60
2021/03/18 09:23:43;;;;;;;5.00;3.87;;;;;;;5.88;81.92;95248.06;5049758;28;20227;-61
2021/03/18 09:26:13;;;;;;;3.40;3.10;;;;;;;5.69;76.36;95262.59;5049729;28;20232;-61
2021/03/18 09:28:42;;;;;;;5.17;3.57;;;;;;;5.71;74.33;95247.66;5049659;28;20255;-61
2021/03/18 09:31:10;;;;;;;4.53;4.00;;;;;;;5.73;75.55;95249.97;5049813;28;20216;-60
2021/03/18 09:33:39;;;;;;;4.77;3.93;;;;;;;5.84;77.76;95249.63;5049566;28;20193;-60
2021/03/18 09:36:22;;;;;;;5.97;3.93;;;;;;;5.71;77.73;95247.66;5049460;28;20676;-61
2021/03/18 09:39:00;;;;;;;5.57;4.03;;;;;;;5.60;78.42;95251.34;5049535;28;20197;-61
2021/03/18 09:41:31;;;;;;;5.03;3.93;;;;;;;5.64;75.23;95263.41;5049457;28;20289;-60
2021/03/18 09:44:04;;;;;;;4.80;4.13;;;;;;;5.62;75.75;95265.50;5049475;28;20225;-61
2021/03/18 09:46:31;;;;;;;5.03;4.00;;;;;;;5.69;74.08;95262.59;5049386;28;20225;-62
2021/03/18 09:48:58;;;;;;;5.07;4.30;;;;;;;6.20;77.48;95254.53;5049127;28;20289;-62
2021/03/18 09:51:25;;;;;;;7.17;4.70;;;;;;;6.27;75.97;95255.00;5049369;28;20291;-61
2021/03/18 09:53:58;;;;;;;4.53;4.03;;;;;;;6.44;73.47;95258.69;5049415;28;20262;-62
2021/03/18 09:56:25;;;;;;;3.40;3.03;;;;;;;6.69;72.46;95265.44;5049453;28;20275;-60
2021/03/18 09:58:54;;;;;;;4.27;3.40;;;;;;;6.36;71.86;95277.38;5049166;28;20232;-61
2021/03/18 10:01:23;;;;;;;4.73;3.77;;;;;;;6.88;73.96;95271.44;5049265;28;20276;-61
2021/03/18 10:03:55;;;;;;;4.03;3.07;;;;;;;6.48;71.01;95279.56;5049187;28;20276;-61
2021/03/18 10:06:31;;;;;;;4.07;2.97;;;;;;;6.34;70.67;95281.25;5049435;28;20219;-60
2021/03/18 10:09:32;;;;;;;3.37;2.90;;;;;;;6.16;72.47;95269.78;5049057;28;20688;-60
2021/03/18 10:12:05;;;;;;;3.90;3.47;;;;;;;6.14;70.50;95286.56;4987593;28;20261;-61
2021/03/18 10:14:37;;;;;;;3.10;2.60;;;;;;;5.70;70.61;95284.78;4987507;28;20696;-60
2021/03/18 10:17:13;;;;;;;3.53;3.07;;;;;;;5.60;70.48;95284.84;5018452;28;20574;-61
2021/03/18 10:19:51;;;;;;;3.50;3.03;;;;;;;5.99;73.43;95285.66;5049065;28;20201;-61
2021/03/18 10:22:23;;;;;;;5.50;3.07;;;;;;;6.00;70.16;95294.16;5048942;28;20204;-61
2021/03/18 10:25:06;;;;;;;4.53;3.20;;;;;;;5.82;73.41;95290.38;5049050;28;20243;-61
2021/03/18 10:27:36;;;;;;;5.07;4.00;;;;;;;6.10;74.65;95285.56;5049184;28;20697;-61
2021/03/18 10:30:10;;;;;;;4.83;3.80;;;;;;;6.16;74.04;95289.66;5048703;28;20350;-60
2021/03/18 10:32:37;;;;;;;4.73;3.40;;;;;;;6.13;70.73;95293.53;5052950;28;20722;-61
2021/03/18 10:35:07;;;;;;;3.63;3.27;;;;;;;5.95;71.17;95289.03;5052814;28;20571;-61
2021/03/18 10:37:38;;;;;;;4.23;3.40;;;;;;;5.95;69.66;95300.13;5052608;28;20659;-61
2021/03/18 10:40:24;;;;;;;3.27;2.70;;;;;;;6.25;70.21;95293.19;5052922;28;20664;-60
2021/03/18 10:42:53;;;;;;;3.20;2.70;;;;;;;6.30;69.25;95293.94;5052727;28;20207;-60
2021/03/18 10:45:28;;;;;;;3.30;2.93;;;;;;;5.77;68.72;95303.31;5051951;28;20280;-61
2021/03/18 10:48:00;;;;;;;3.50;3.20;;;;;;;5.90;73.39;95292.41;5052611;28;20816;-60
2021/03/18 10:50:29;;;;;;;3.07;2.80;;;;;;;6.14;72.86;95281.41;5052490;28;20268;-60
2021/03/18 10:53:02;;;;;;;3.53;2.90;;;;;;;5.85;71.16;95296.81;5052362;28;20201;-61
2021/03/18 10:55:35;;;;;;;4.53;3.13;;;;;;;5.90;74.49;95292.41;5052659;28;20209;-62
2021/03/18 10:58:05;;;;;;;4.37;2.80;;;;;;;5.88;74.15;95288.56;5051318;28;20631;-62
2021/03/18 11:00:37;;;;;;;3.63;3.10;;;;;;;6.09;76.47;95294.34;5052408;28;20723;-61
2021/03/18 11:03:07;;;;;;;3.20;2.90;;;;;;;5.94;72.64;95305.53;5052425;28;20748;-61
2021/03/18 11:05:37;;;;;;;3.60;2.77;;;;;;;5.82;72.93;95295.53;5052943;28;20299;-61
2021/03/18 11:08:05;;;;;;;3.03;2.73;;;;;;;5.80;72.13;95292.44;5052376;28;20230;-60
2021/03/18 11:10:36;;;;;;;3.80;3.00;;;;;;;5.96;73.21;95285.41;5052113;28;20264;-60
2021/03/18 11:13:06;;;;;;;3.30;2.97;;;;;;;6.36;75.01;95290.28;5052210;28;20193;-61
2021/03/18 11:15:58;;;;;;;3.73;3.30;;;;;;;6.25;70.93;95283.66;5052051;28;20231;-60
2021/03/18 11:18:30;;;;;;;4.30;2.90;;;;;;;6.18;70.70;95306.41;5052127;28;20194;-61
2021/03/18 11:20:58;;;;;;;4.00;3.13;;;;;;;6.08;71.77;95295.41;5052048;28;20557;-61
2021/03/18 11:23:33;;;;;;;4.93;3.60;;;;;;;6.39;74.44;95289.72;5051924;28;20292;-62
2021/03/18 11:26:02;;;;;;;4.10;3.20;;;;;;;6.23;70.90;95305.59;5052148;28;20640;-62
2021/03/18 11:28:30;;;;;;;4.53;3.63;;;;;;;6.03;72.16;95304.69;5051681;28;20193;-61
2021/03/18 11:30:59;;;;;;;7.90;3.90;;;;;;;5.88;72.91;95293.72;5052136;28;20219;-62
2021/03/18 11:33:33;;;;;;;4.53;3.80;;;;;;;6.13;73.25;95290.22;5052003;28;20709;-62
2021/03/18 11:36:01;;;;;;;4.47;3.90;;;;;;;6.03;71.20;95307.28;5051926;28;20244;-61
2021/03/18 11:38:29;;;;;;;5.83;4.43;;;;;;;5.87;71.11;95300.69;5051937;28;20194;-61
2021/03/18 11:40:57;;;;;;;5.30;4.80;;;;;;;5.70;71.73;95295.09;5051305;28;20190;-61
2021/03/18 11:43:24;;;;;;;5.60;5.00;;;;;;;5.89;71.83;95290.88;5051798;28;20193;-62
2021/03/18 11:45:51;;;;;;;5.13;4.63;;;;;;;6.05;71.69;95292.31;5051659;28;20197;-62
2021/03/18 11:48:19;;;;;;;7.07;5.77;;;;;;;5.80;72.30;95296.84;5052450;28;20229;-60